Terminal Aerodrome Forecast
Issued by NWS

Home | Current Version | Previous Version | Graphics & Text | Print | Product List | Glossary On
Versions: 1 2 3 4 5 6 7 8 9 10 11 12 13
000
FTUS43 KGRB 260400 AAA
TAFMTW
TAF AMD
KMTW 260435Z 2605/2624 02005KT P6SM SCT035 BKN080
      TEMPO 2605/2607 4SM -SN BKN025
     FM261000 36006KT P6SM SCT035 BKN100
     FM261500 34010KT P6SM SCT100 BKN200=

USA.gov is the U.S. government's official web portal to all federal, state and local government web resources and services.